createdAt,value
2023-03-16T00:04:13.278Z,268.60
2023-03-16T00:09:14.955Z,270.33
2023-03-16T00:14:16.686Z,268.27
2023-03-16T00:19:18.390Z,265.20
2023-03-16T00:24:20.197Z,270.65
2023-03-16T00:29:22.755Z,288.38
2023-03-16T00:34:25.878Z,275.88
2023-03-16T00:39:27.575Z,272.45
2023-03-16T00:44:29.237Z,266.42
2023-03-16T00:49:34.821Z,271.00
2023-03-16T00:54:36.857Z,298.93
2023-03-16T00:59:38.590Z,294.07
2023-03-16T01:04:41.708Z,270.77
2023-03-16T01:09:43.982Z,272.27
2023-03-16T01:14:47.307Z,268.85
2023-03-16T01:19:49.327Z,272.05
2023-03-16T01:24:51.105Z,280.58
2023-03-16T01:29:52.905Z,270.33
2023-03-16T01:34:54.866Z,269.95
2023-03-16T01:39:58.288Z,269.17
2023-03-16T01:45:05.665Z,268.58
2023-03-16T01:50:13.325Z,270.70
2023-03-16T01:55:16.947Z,273.33
2023-03-16T02:00:20.083Z,276.27
2023-03-16T02:05:45.550Z,280.92
2023-03-16T02:10:54.623Z,273.08
2023-03-16T02:15:57.548Z,270.45
2023-03-16T02:21:18.415Z,265.90
2023-03-16T02:26:37.583Z,263.30
2023-03-16T02:31:39.481Z,266.05
2023-03-16T02:36:42.210Z,288.43
2023-03-16T02:41:45.031Z,268.23
2023-03-16T02:46:48.203Z,264.00
2023-03-16T02:51:50.050Z,260.10
2023-03-16T02:56:52.759Z,267.08
2023-03-16T03:01:56.210Z,272.55
2023-03-16T03:07:04.052Z,270.15
2023-03-16T03:12:10.342Z,278.35
2023-03-16T03:17:13.411Z,271.55
2023-03-16T03:22:18.621Z,309.00
2023-03-16T03:27:22.666Z,304.73
2023-03-16T03:32:26.558Z,322.80
2023-03-16T03:37:28.922Z,271.27
2023-03-16T03:42:31.132Z,271.20
2023-03-16T03:47:34.264Z,270.15
2023-03-16T03:52:37.394Z,270.98
2023-03-16T03:57:39.682Z,268.33
2023-03-16T04:02:41.682Z,267.60
2023-03-16T04:07:55.105Z,261.90
2023-03-16T04:12:57.953Z,267.98
2023-03-16T04:18:01.992Z,258.75
2023-03-16T04:23:05.033Z,268.67
2023-03-16T04:28:08.427Z,272.25
2023-03-16T04:33:13.030Z,270.65
2023-03-16T04:38:14.936Z,270.10
2023-03-16T04:43:26.805Z,267.88
2023-03-16T04:48:32.891Z,268.02
2023-03-16T04:53:36.372Z,265.90
2023-03-16T04:58:46.662Z,267.83
2023-03-16T05:03:49.835Z,291.37
2023-03-16T05:08:53.367Z,263.95
2023-03-16T05:13:55.261Z,284.90
2023-03-16T05:19:01.317Z,266.23
2023-03-16T05:24:09.955Z,269.13
2023-03-16T05:29:12.196Z,270.33
2023-03-16T05:34:14.660Z,280.83
2023-03-16T05:39:16.618Z,275.23
2023-03-16T05:44:22.409Z,274.30
2023-03-16T05:49:43.600Z,276.00
2023-03-16T05:54:55.541Z,266.90
2023-03-16T05:59:57.563Z,273.63
2023-03-16T06:04:59.469Z,277.15
2023-03-16T06:10:01.486Z,277.85
2023-03-16T06:15:08.696Z,271.63
2023-03-16T06:20:13.109Z,275.33
2023-03-16T06:25:16.826Z,267.80
2023-03-16T06:30:21.314Z,276.80
2023-03-16T06:35:23.147Z,273.75
2023-03-16T06:40:41.396Z,277.80
2023-03-16T06:45:43.422Z,274.02
2023-03-16T06:50:46.460Z,278.42
2023-03-16T06:55:49.891Z,277.40
2023-03-16T07:00:53.965Z,276.77
2023-03-16T07:05:55.777Z,274.50
2023-03-16T07:10:57.910Z,281.35
2023-03-16T07:16:00.618Z,275.40
2023-03-16T07:21:02.476Z,275.13
2023-03-16T07:26:04.252Z,270.60
2023-03-16T07:31:09.550Z,291.93
2023-03-16T07:36:14.441Z,298.50
2023-03-16T07:46:23.566Z,287.63
2023-03-16T07:51:26.042Z,313.00
2023-03-16T07:56:31.600Z,286.70
2023-03-16T08:01:38.434Z,291.60
2023-03-16T08:06:40.539Z,288.25
2023-03-16T08:11:43.370Z,288.17
2023-03-16T08:16:46.106Z,293.15
2023-03-16T08:22:01.120Z,279.17
2023-03-16T08:27:08.478Z,288.63
2023-03-16T08:32:12.632Z,305.10
2023-03-16T08:37:18.556Z,297.98
2023-03-16T08:42:22.266Z,303.77
2023-03-16T08:47:29.810Z,323.38
2023-03-16T08:52:33.779Z,312.90
2023-03-16T08:57:35.738Z,320.88
2023-03-16T09:02:38.744Z,328.37
2023-03-16T09:07:40.894Z,319.90
2023-03-16T09:12:43.547Z,335.38
2023-03-16T09:17:48.373Z,330.00
2023-03-16T09:22:50.080Z,330.02
2023-03-16T09:27:52.857Z,346.17
2023-03-16T09:32:54.603Z,341.97
2023-03-16T09:38:06.336Z,338.33
2023-03-16T09:43:33.537Z,345.75
2023-03-16T09:48:37.090Z,347.63
2023-03-16T09:53:39.310Z,349.50
2023-03-16T09:58:41.051Z,355.48
2023-03-16T10:03:50.915Z,362.58
2023-03-16T10:08:55.718Z,377.73
2023-03-16T10:14:17.707Z,394.52
2023-03-16T10:19:38.570Z,445.40
2023-03-16T10:24:43.162Z,434.35
2023-03-16T10:29:44.884Z,474.57
2023-03-16T10:34:59.101Z,488.83
2023-03-16T10:40:01.254Z,511.17
2023-03-16T10:45:03.763Z,501.77
2023-03-16T10:50:16.896Z,515.40
2023-03-16T10:55:30.680Z,528.63
2023-03-16T11:00:38.449Z,593.80
2023-03-16T11:10:55.219Z,536.78
2023-03-16T11:16:28.215Z,565.97
2023-03-16T11:21:42.474Z,533.80
2023-03-16T11:26:44.858Z,546.55
2023-03-16T11:32:05.950Z,549.47
2023-03-16T11:37:17.011Z,591.00
2023-03-16T11:42:29.878Z,577.17
2023-03-16T11:47:50.901Z,573.73
2023-03-16T11:53:12.284Z,559.97
2023-03-16T11:58:32.825Z,597.30
2023-03-16T12:03:55.171Z,626.00
2023-03-16T12:09:04.362Z,606.87
2023-03-16T12:14:06.042Z,637.97
2023-03-16T12:19:14.632Z,605.60
2023-03-16T12:24:22.595Z,655.93
2023-03-16T12:29:41.570Z,686.00
2023-03-16T12:35:03.142Z,683.30
2023-03-16T12:40:25.168Z,654.37
2023-03-16T12:45:39.070Z,632.88
2023-03-16T12:50:51.037Z,657.40
2023-03-16T12:55:53.142Z,684.50
2023-03-16T13:00:56.974Z,672.20
2023-03-16T13:06:00.725Z,658.58
2023-03-16T13:11:07.410Z,660.40
2023-03-16T13:16:22.338Z,680.97
2023-03-16T13:21:41.034Z,663.97
2023-03-16T13:26:46.251Z,685.58
2023-03-16T13:31:48.486Z,679.20
2023-03-16T13:36:55.229Z,709.38
2023-03-16T13:42:18.366Z,692.53
2023-03-16T13:47:21.270Z,706.33
2023-03-16T13:52:32.955Z,699.60
2023-03-16T13:57:39.201Z,724.30
2023-03-16T14:02:42.575Z,738.33
2023-03-16T14:07:46.725Z,716.53
2023-03-16T14:12:55.110Z,719.72
2023-03-16T14:18:08.248Z,727.17
2023-03-16T14:23:39.271Z,746.85
2023-03-16T14:28:41.576Z,744.65
2023-03-16T14:33:43.292Z,742.47
2023-03-16T14:38:48.223Z,740.25
2023-03-16T14:43:55.573Z,721.70
2023-03-16T14:49:08.768Z,738.35
2023-03-16T14:54:14.632Z,717.05
2023-03-16T14:59:16.737Z,712.33
2023-03-16T15:04:20.659Z,722.13
2023-03-16T15:09:25.721Z,719.60
2023-03-16T15:14:45.856Z,704.22
2023-03-16T15:19:48.568Z,708.55
2023-03-16T15:25:26.986Z,712.67
2023-03-16T15:30:30.808Z,705.38
2023-03-16T15:35:32.869Z,713.03
2023-03-16T15:40:42.163Z,701.58
2023-03-16T15:45:44.268Z,695.78
2023-03-16T15:50:52.413Z,705.22
2023-03-16T15:55:59.046Z,703.05
2023-03-16T16:01:01.739Z,696.07
2023-03-16T16:06:03.801Z,672.80
2023-03-16T16:11:09.240Z,713.78
2023-03-16T16:16:13.377Z,705.05
2023-03-16T16:21:24.750Z,691.33
2023-03-16T16:26:34.321Z,677.17
2023-03-16T16:31:43.709Z,688.80
2023-03-16T16:36:45.652Z,689.50
2023-03-16T16:41:48.368Z,682.40
2023-03-16T16:46:50.887Z,674.33
2023-03-16T16:51:52.817Z,668.30
2023-03-16T16:56:55.141Z,664.15
2023-03-16T17:01:57.580Z,665.83
2023-03-16T17:07:02.723Z,675.95
2023-03-16T17:12:04.698Z,671.78
2023-03-16T17:17:12.085Z,652.83
2023-03-16T17:27:21.672Z,631.22
2023-03-16T17:32:23.368Z,611.20
2023-03-16T17:37:25.077Z,608.78
2023-03-16T17:42:27.058Z,594.70
2023-03-16T17:47:31.247Z,598.42
2023-03-16T17:52:33.554Z,570.92
2023-03-16T17:57:36.331Z,550.22
2023-03-16T18:02:55.064Z,562.50
2023-03-16T18:08:07.373Z,560.70
2023-03-16T18:13:16.983Z,549.08
2023-03-16T18:18:21.350Z,555.72
2023-03-16T18:23:27.832Z,520.38
2023-03-16T18:28:30.467Z,530.13
2023-03-16T18:33:36.792Z,509.30
2023-03-16T18:38:39.933Z,519.17
2023-03-16T18:43:41.878Z,509.92
2023-03-16T18:48:43.594Z,522.80
2023-03-16T18:53:45.267Z,498.60
2023-03-16T18:58:47.784Z,504.90
2023-03-16T19:03:50.032Z,505.60
2023-03-16T19:08:52.055Z,493.30
2023-03-16T19:13:54.881Z,472.53
2023-03-16T19:18:56.601Z,482.30
2023-03-16T19:24:00.486Z,468.83
2023-03-16T19:29:03.234Z,447.40
2023-03-16T19:34:10.646Z,466.87
2023-03-16T19:39:13.366Z,472.40
2023-03-16T19:44:17.467Z,451.85
2023-03-16T19:49:20.245Z,465.90
2023-03-16T19:54:23.221Z,458.43
2023-03-16T19:59:28.750Z,465.27
2023-03-16T20:04:31.373Z,449.35
2023-03-16T20:09:33.151Z,448.40
2023-03-16T20:14:34.915Z,459.73
2023-03-16T20:19:36.625Z,431.70
2023-03-16T20:24:38.720Z,436.42
2023-03-16T20:29:40.887Z,437.98
2023-03-16T20:34:42.644Z,447.70
2023-03-16T20:39:45.163Z,441.92
2023-03-16T20:44:47.599Z,425.70
2023-03-16T20:49:50.667Z,443.15
2023-03-16T20:54:52.571Z,431.30
2023-03-16T20:59:55.494Z,429.73
2023-03-16T21:04:58.344Z,428.38
2023-03-16T21:10:00.317Z,427.15
2023-03-16T21:15:02.682Z,421.60
2023-03-16T21:20:20.725Z,414.70
2023-03-16T21:25:24.417Z,408.48
2023-03-16T21:30:29.285Z,411.52
2023-03-16T21:35:35.378Z,415.25
2023-03-16T21:40:37.213Z,430.07
2023-03-16T21:45:39.367Z,425.00
2023-03-16T21:50:41.114Z,406.03
2023-03-16T21:55:42.888Z,422.10
2023-03-16T22:00:45.898Z,412.83
2023-03-16T22:05:48.087Z,395.60
2023-03-16T22:10:50.668Z,395.20
2023-03-16T22:15:53.281Z,396.80
2023-03-16T22:20:55.874Z,394.67
2023-03-16T22:25:58.094Z,406.83
2023-03-16T22:31:04.230Z,410.63
2023-03-16T22:36:08.335Z,384.42
2023-03-16T22:41:15.573Z,397.70
2023-03-16T22:46:21.794Z,393.13
2023-03-16T22:51:25.915Z,397.10
2023-03-16T22:56:29.534Z,400.73
2023-03-16T23:01:39.553Z,407.53
2023-03-16T23:06:41.892Z,408.50
2023-03-16T23:11:44.392Z,404.53
2023-03-16T23:16:46.732Z,402.53
2023-03-16T23:21:49.056Z,393.25
2023-03-16T23:26:51.688Z,403.33
2023-03-16T23:31:54.546Z,396.38
2023-03-16T23:36:56.254Z,392.25
2023-03-16T23:41:57.978Z,403.70
2023-03-16T23:47:00.085Z,403.70
2023-03-16T23:52:02.123Z,399.73
2023-03-16T23:57:04.012Z,398.75
